Time;durP1;ratioP1;P1;durP2;ratioP2;P2;SDS_P1;SDS_P2;PMS_P1;PMS_P2;Temp;Humidity;BMP_temperature;BMP_pressure;BME280_temperature;BME280_humidity;BME280_pressure;Samples;Min_cycle;Max_cycle;Signal;HPM_P1;HPM_P2
2021/12/22 00:01:10;;;;;;;35.28;13.10;;;-5.50;99.90;;;;;;4950490;29;20479;-60
2021/12/22 00:03:35;;;;;;;47.67;14.68;;;-5.50;99.90;;;;;;4950109;29;20063;-60
2021/12/22 00:06:01;;;;;;;54.92;16.05;;;-5.60;99.90;;;;;;4950537;29;20416;-60
2021/12/22 00:08:27;;;;;;;46.47;14.73;;;-5.50;99.90;;;;;;4950461;29;20383;-60
2021/12/22 00:10:53;;;;;;;43.97;15.13;;;-5.50;99.90;;;;;;4950793;29;20040;-60
2021/12/22 00:13:19;;;;;;;44.13;14.98;;;-5.50;99.90;;;;;;4951102;29;20038;-61
2021/12/22 00:15:44;;;;;;;41.08;15.18;;;-5.60;99.90;;;;;;4950041;29;20037;-60
2021/12/22 00:18:10;;;;;;;41.50;13.85;;;-5.60;99.90;;;;;;4951317;29;20027;-60
2021/12/22 00:20:36;;;;;;;40.13;14.30;;;-5.60;99.90;;;;;;4949836;29;20031;-61
2021/12/22 00:23:02;;;;;;;47.05;14.57;;;-5.60;99.90;;;;;;4951001;29;20047;-60
2021/12/22 00:25:28;;;;;;;42.42;14.25;;;-5.70;99.90;;;;;;4944500;29;20415;-61
2021/12/22 00:27:56;;;;;;;43.60;14.35;;;-5.70;99.90;;;;;;4950351;29;20031;-60
2021/12/22 00:30:24;;;;;;;41.45;14.20;;;-5.70;99.90;;;;;;4931805;29;20043;-60
2021/12/22 00:32:52;;;;;;;46.78;16.17;;;-5.70;99.90;;;;;;4941294;29;20599;-60
2021/12/22 00:35:21;;;;;;;44.92;13.98;;;-5.60;99.90;;;;;;4950777;29;20039;-60
2021/12/22 00:37:47;;;;;;;49.20;14.45;;;-5.60;99.90;;;;;;4950001;29;20043;-60
2021/12/22 00:40:13;;;;;;;42.33;14.45;;;-5.70;99.90;;;;;;4950197;29;20389;-60
2021/12/22 00:42:39;;;;;;;44.10;15.07;;;-5.70;99.90;;;;;;4950123;29;20089;-60
2021/12/22 00:45:05;;;;;;;37.72;13.00;;;-5.70;99.90;;;;;;4951006;29;20028;-60
2021/12/22 00:47:31;;;;;;;45.35;14.85;;;-5.70;99.90;;;;;;4937447;29;20060;-61
2021/12/22 00:49:58;;;;;;;37.58;14.75;;;-5.70;99.90;;;;;;4948275;29;20114;-60
2021/12/22 00:52:25;;;;;;;42.35;14.38;;;-5.70;99.90;;;;;;4950989;29;20038;-61
2021/12/22 00:54:51;;;;;;;46.90;14.65;;;-5.80;99.90;;;;;;4949096;29;20023;-60
2021/12/22 00:57:17;;;;;;;42.65;13.63;;;-5.80;99.90;;;;;;4951319;28;20035;-60
2021/12/22 00:59:45;;;;;;;43.45;13.57;;;-5.80;99.90;;;;;;4953401;29;20476;-60
2021/12/22 01:02:14;;;;;;;34.10;12.93;;;-5.90;99.90;;;;;;4953750;29;20031;-60
2021/12/22 01:04:41;;;;;;;32.90;13.23;;;-5.90;99.90;;;;;;4953990;29;20035;-60
2021/12/22 01:07:07;;;;;;;46.78;14.05;;;-5.90;99.90;;;;;;4936707;29;20078;-60
2021/12/22 01:09:34;;;;;;;44.97;15.05;;;-5.90;99.90;;;;;;4953517;29;20043;-60
2021/12/22 01:12:01;;;;;;;44.20;15.02;;;-6.00;99.90;;;;;;4953765;29;20106;-60
2021/12/22 01:14:27;;;;;;;48.17;15.18;;;-6.10;99.90;;;;;;4953879;29;20047;-61
2021/12/22 01:16:58;;;;;;;48.47;15.32;;;-6.20;99.90;;;;;;4953563;29;20487;-60
2021/12/22 01:19:32;;;;;;;43.97;16.25;;;-6.20;99.90;;;;;;4953962;29;20043;-60
2021/12/22 01:22:09;;;;;;;47.45;15.80;;;-6.20;99.90;;;;;;4952459;29;20055;-60
2021/12/22 01:24:35;;;;;;;54.92;16.05;;;-6.20;99.90;;;;;;4933760;29;20653;-60
2021/12/22 01:27:08;;;;;;;44.80;14.50;;;-6.30;99.90;;;;;;4934257;29;20107;-60
2021/12/22 01:29:35;;;;;;;45.08;13.25;;;-6.20;99.90;;;;;;4934437;29;20035;-60
2021/12/22 01:32:01;;;;;;;42.15;13.75;;;-6.20;99.90;;;;;;4934718;29;20038;-60
2021/12/22 01:34:28;;;;;;;41.05;14.27;;;-6.20;99.90;;;;;;4935748;29;20024;-60
2021/12/22 01:36:54;;;;;;;38.50;13.10;;;-6.20;99.90;;;;;;4933943;29;20042;-60
2021/12/22 01:39:20;;;;;;;35.20;12.95;;;-6.20;99.90;;;;;;4933730;29;20039;-60
2021/12/22 01:41:45;;;;;;;34.50;12.65;;;-6.20;99.90;;;;;;4933745;29;20384;-60
2021/12/22 01:44:23;;;;;;;42.20;13.27;;;-6.20;99.90;;;;;;4933565;29;20527;-60
2021/12/22 01:49:49;;;;;;;43.38;14.00;;;-6.30;99.90;;;;;;4933281;29;20051;-60
2021/12/22 01:52:14;;;;;;;46.83;15.70;;;-6.40;99.90;;;;;;4934377;29;20039;-60
2021/12/22 01:55:03;;;;;;;41.88;14.02;;;-6.40;99.90;;;;;;4933725;29;20031;-60
2021/12/22 01:57:31;;;;;;;37.78;12.27;;;-6.40;99.90;;;;;;4933952;29;20054;-60
2021/12/22 01:59:57;;;;;;;45.45;13.70;;;-6.40;99.90;;;;;;4928090;29;20028;-60
2021/12/22 02:02:22;;;;;;;39.55;13.23;;;-6.40;99.90;;;;;;4933633;29;20036;-60
2021/12/22 02:04:48;;;;;;;34.90;12.55;;;-6.30;99.90;;;;;;4932925;29;20040;-60
2021/12/22 02:07:14;;;;;;;36.75;12.95;;;-6.40;99.90;;;;;;4934320;29;20031;-60
2021/12/22 02:12:18;;;;;;;46.38;13.63;;;-6.30;99.90;;;;;;4934191;29;20038;-61
2021/12/22 02:14:45;;;;;;;34.78;12.15;;;-6.30;99.90;;;;;;4932853;29;20032;-60
2021/12/22 02:17:12;;;;;;;38.65;12.63;;;-6.30;99.90;;;;;;4933765;29;20091;-60
2021/12/22 02:19:43;;;;;;;35.22;11.88;;;-6.30;99.90;;;;;;4932868;29;20488;-60
2021/12/22 02:22:12;;;;;;;42.90;13.27;;;-6.40;99.90;;;;;;4941308;29;20054;-60
2021/12/22 02:24:39;;;;;;;35.83;12.32;;;-6.40;99.90;;;;;;4951522;29;20126;-60
2021/12/22 02:27:11;;;;;;;37.42;12.75;;;-6.40;99.90;;;;;;4952903;29;20729;-60
2021/12/22 02:29:39;;;;;;;39.33;12.77;;;-6.40;99.90;;;;;;4952212;29;20039;-60
2021/12/22 02:32:22;;;;;;;36.58;13.10;;;-6.40;99.90;;;;;;4952773;29;20031;-60
2021/12/22 02:34:48;;;;;;;40.78;13.55;;;-6.40;99.90;;;;;;4951366;29;20047;-60
2021/12/22 02:37:17;;;;;;;43.50;14.65;;;-6.50;99.90;;;;;;4952367;29;20031;-60
2021/12/22 02:39:57;;;;;;;42.42;13.95;;;-6.60;99.90;;;;;;4951387;29;20039;-60
2021/12/22 02:42:25;;;;;;;47.63;15.90;;;-6.60;99.90;;;;;;4935244;29;20105;-61
2021/12/22 02:44:51;;;;;;;43.40;14.40;;;-6.60;99.90;;;;;;4951048;29;20032;-60
2021/12/22 02:47:19;;;;;;;47.85;15.68;;;-6.70;99.90;;;;;;4938858;29;20039;-60
2021/12/22 02:49:45;;;;;;;46.05;14.88;;;-6.80;99.90;;;;;;4951499;29;20061;-60
2021/12/22 02:52:11;;;;;;;49.47;15.93;;;-6.80;99.90;;;;;;4935114;29;20468;-61
2021/12/22 02:54:43;;;;;;;47.42;14.18;;;-6.80;99.90;;;;;;4952074;29;20472;-60
2021/12/22 02:57:22;;;;;;;35.70;12.30;;;-6.80;99.90;;;;;;4951637;29;20100;-60
2021/12/22 03:00:11;;;;;;;34.97;11.45;;;-6.80;99.90;;;;;;4950931;29;20174;-60
2021/12/22 03:02:47;;;;;;;42.13;12.75;;;-6.70;99.90;;;;;;4951937;29;20031;-60
2021/12/22 03:05:13;;;;;;;34.60;12.30;;;-6.60;99.90;;;;;;4951985;29;20198;-60
2021/12/22 03:07:38;;;;;;;37.15;11.48;;;-6.60;99.90;;;;;;4951468;29;20042;-60
2021/12/22 03:10:12;;;;;;;40.35;12.95;;;-6.60;99.90;;;;;;4951161;29;20047;-60
2021/12/22 03:12:39;;;;;;;37.67;13.57;;;-6.60;99.90;;;;;;4951410;29;20031;-60
2021/12/22 03:15:07;;;;;;;35.58;12.05;;;-6.70;99.90;;;;;;4951067;29;20035;-60
2021/12/22 03:17:33;;;;;;;41.38;12.30;;;-6.70;99.90;;;;;;4952027;29;20391;-60
2021/12/22 03:19:59;;;;;;;36.10;12.02;;;-6.70;99.90;;;;;;4950987;28;20039;-60
2021/12/22 03:22:25;;;;;;;34.47;13.27;;;-6.70;99.90;;;;;;4951792;29;20051;-60
2021/12/22 03:24:52;;;;;;;36.58;12.75;;;-6.70;99.90;;;;;;4942165;29;20039;-60
2021/12/22 03:27:19;;;;;;;36.38;12.18;;;-6.60;99.90;;;;;;4932444;29;20035;-60
2021/12/22 03:29:46;;;;;;;38.15;12.65;;;-6.70;99.90;;;;;;4914379;29;20043;-60
2021/12/22 03:32:12;;;;;;;35.80;12.32;;;-6.60;99.90;;;;;;4948277;29;20030;-60
2021/12/22 03:34:39;;;;;;;36.65;10.90;;;-6.60;99.90;;;;;;4938425;29;20172;-60
2021/12/22 03:37:06;;;;;;;34.33;10.60;;;-6.60;99.90;;;;;;4932091;29;20028;-60
2021/12/22 03:39:32;;;;;;;35.97;12.00;;;-6.50;99.90;;;;;;4932469;29;20090;-60
2021/12/22 03:41:58;;;;;;;41.75;13.00;;;-6.30;99.90;;;;;;4930937;29;20050;-60
2021/12/22 03:44:24;;;;;;;38.38;13.73;;;-6.40;99.90;;;;;;4947364;29;20163;-61
2021/12/22 03:46:51;;;;;;;34.78;11.48;;;-6.40;99.90;;;;;;4914897;29;20114;-60
2021/12/22 03:49:17;;;;;;;35.30;11.75;;;-6.40;99.90;;;;;;4915320;29;20191;-60
2021/12/22 03:51:43;;;;;;;36.92;11.65;;;-6.30;99.90;;;;;;4931916;29;20040;-60
2021/12/22 03:54:12;;;;;;;42.63;12.00;;;-6.30;99.90;;;;;;4930355;29;20078;-60
2021/12/22 03:56:38;;;;;;;37.40;12.23;;;-6.20;99.90;;;;;;4932630;29;20032;-60
2021/12/22 03:59:04;;;;;;;39.60;12.25;;;-6.20;99.90;;;;;;4929359;29;20031;-60
2021/12/22 04:01:31;;;;;;;33.83;12.38;;;-6.30;99.90;;;;;;4935815;29;20177;-60
2021/12/22 04:04:01;;;;;;;37.08;12.90;;;-6.40;99.90;;;;;;4931686;29;20034;-60
2021/12/22 04:06:27;;;;;;;39.30;12.23;;;-6.40;99.90;;;;;;4922956;29;20385;-60
2021/12/22 04:08:52;;;;;;;46.05;13.05;;;-6.30;99.90;;;;;;4932801;29;20049;-60
2021/12/22 04:11:18;;;;;;;37.25;12.02;;;-6.30;99.90;;;;;;4930984;29;20046;-60
2021/12/22 04:13:44;;;;;;;36.13;12.07;;;-6.30;99.90;;;;;;4931472;29;20043;-60
2021/12/22 04:16:10;;;;;;;37.50;13.13;;;-6.20;99.90;;;;;;4930872;29;20111;-60
2021/12/22 04:18:36;;;;;;;34.70;11.95;;;-6.20;99.90;;;;;;4931293;29;20099;-60
2021/12/22 04:21:02;;;;;;;37.80;13.63;;;-6.10;99.90;;;;;;4931213;29;20773;-60
2021/12/22 04:23:27;;;;;;;37.60;13.07;;;-6.00;99.90;;;;;;4945576;29;20126;-60
2021/12/22 04:25:54;;;;;;;38.08;12.43;;;-6.10;99.90;;;;;;4938793;29;20511;-60
2021/12/22 04:28:19;;;;;;;40.90;12.63;;;-6.20;99.90;;;;;;4951238;29;20038;-61
2021/12/22 04:30:49;;;;;;;37.97;11.75;;;-6.20;99.90;;;;;;4937382;29;20122;-60
2021/12/22 04:33:16;;;;;;;33.90;11.75;;;-6.30;99.90;;;;;;4938663;29;20031;-60
2021/12/22 04:35:42;;;;;;;43.85;11.77;;;-6.40;99.90;;;;;;4943396;29;20027;-60
2021/12/22 04:38:08;;;;;;;38.97;12.13;;;-6.30;99.90;;;;;;4931583;29;20046;-60
2021/12/22 04:40:33;;;;;;;35.13;13.25;;;-6.30;99.90;;;;;;4920827;29;20480;-60
2021/12/22 04:42:59;;;;;;;33.85;11.48;;;-6.40;99.90;;;;;;4934955;29;20036;-61
2021/12/22 04:45:25;;;;;;;33.58;10.88;;;-6.40;99.90;;;;;;4935490;29;20031;-60
2021/12/22 04:47:51;;;;;;;34.78;11.55;;;-6.50;99.90;;;;;;4935700;29;20388;-60
2021/12/22 04:50:19;;;;;;;36.65;11.40;;;-6.50;99.90;;;;;;4922130;29;20077;-61
2021/12/22 04:52:56;;;;;;;44.22;14.85;;;-6.40;99.90;;;;;;4918031;29;20066;-60
2021/12/22 04:55:25;;;;;;;39.47;14.40;;;-6.50;99.90;;;;;;4935238;29;20455;-59
2021/12/22 04:57:50;;;;;;;41.47;14.98;;;-6.40;99.90;;;;;;4922293;29;20072;-60
2021/12/22 05:00:16;;;;;;;49.03;18.08;;;-6.40;99.90;;;;;;4913321;29;20048;-59
2021/12/22 05:02:42;;;;;;;49.55;16.15;;;-6.40;99.90;;;;;;4934263;29;20079;-59
2021/12/22 05:05:09;;;;;;;46.47;14.27;;;-6.40;99.90;;;;;;4925785;29;20023;-60
2021/12/22 05:07:34;;;;;;;40.05;12.13;;;-6.30;99.90;;;;;;4921423;29;20032;-58
2021/12/22 05:10:00;;;;;;;41.85;13.65;;;-6.30;99.90;;;;;;4933638;29;20091;-59
2021/12/22 05:12:26;;;;;;;40.05;13.25;;;-6.40;99.90;;;;;;4934142;29;20051;-60
2021/12/22 05:14:52;;;;;;;37.08;12.23;;;-6.50;99.90;;;;;;4934035;29;20032;-60
2021/12/22 05:20:06;;;;;;;43.22;14.55;;;-6.70;99.90;;;;;;4903185;29;20087;-59
2021/12/22 05:22:33;;;;;;;43.28;15.38;;;-6.60;99.90;;;;;;4943694;29;20043;-60
2021/12/22 05:24:59;;;;;;;49.85;15.38;;;-6.60;99.90;;;;;;4949814;29;20032;-59
2021/12/22 05:27:26;;;;;;;33.47;11.90;;;-6.60;99.90;;;;;;4952541;29;20408;-59
2021/12/22 05:29:51;;;;;;;34.45;12.10;;;-6.50;99.90;;;;;;4945477;29;20031;-60
2021/12/22 05:32:17;;;;;;;38.72;12.93;;;-6.50;99.90;;;;;;4943356;29;20111;-60
2021/12/22 05:34:43;;;;;;;43.25;14.93;;;-6.50;99.90;;;;;;4953698;29;20032;-60
2021/12/22 05:37:08;;;;;;;44.05;15.13;;;-6.50;99.90;;;;;;4952701;29;20027;-60
2021/12/22 05:39:34;;;;;;;41.95;14.77;;;-6.40;99.90;;;;;;4953503;29;20035;-60
2021/12/22 05:42:01;;;;;;;39.40;13.02;;;-6.40;99.90;;;;;;4951107;29;20035;-60
2021/12/22 05:44:27;;;;;;;48.53;15.15;;;-6.50;99.90;;;;;;4952978;28;20047;-60
2021/12/22 05:46:53;;;;;;;69.43;20.95;;;-6.50;99.90;;;;;;4952980;29;20082;-60
2021/12/22 05:49:18;;;;;;;71.60;21.17;;;-6.50;99.90;;;;;;4936079;29;20059;-60
2021/12/22 05:51:44;;;;;;;73.05;21.30;;;-6.40;99.90;;;;;;4953230;29;20456;-60
2021/12/22 05:54:10;;;;;;;62.97;18.95;;;-6.40;99.90;;;;;;4952297;29;20114;-60
2021/12/22 05:56:36;;;;;;;66.15;20.33;;;-6.40;99.90;;;;;;4952895;29;20033;-60
2021/12/22 05:59:02;;;;;;;70.40;20.45;;;-6.30;99.90;;;;;;4952305;29;20103;-59
2021/12/22 06:01:30;;;;;;;72.78;19.65;;;-6.20;99.90;;;;;;4946467;29;20043;-60
2021/12/22 06:03:56;;;;;;;70.25;19.35;;;-6.10;99.90;;;;;;4944403;28;20019;-60
2021/12/22 06:06:21;;;;;;;63.60;19.02;;;-6.00;99.90;;;;;;4949135;29;20015;-60
2021/12/22 06:08:47;;;;;;;58.38;18.00;;;-5.90;99.90;;;;;;4950198;29;20081;-60
2021/12/22 06:11:13;;;;;;;64.38;18.27;;;-5.90;99.90;;;;;;4950491;29;20329;-60
2021/12/22 06:13:39;;;;;;;66.28;20.20;;;-5.80;99.90;;;;;;4950398;29;20031;-60
2021/12/22 06:16:05;;;;;;;72.75;23.27;;;-5.70;99.90;;;;;;4951397;29;20023;-60
2021/12/22 06:18:31;;;;;;;71.40;22.98;;;-5.70;99.90;;;;;;4952664;29;20031;-60
2021/12/22 06:20:58;;;;;;;72.80;21.50;;;-5.70;99.90;;;;;;4950491;29;20032;-60
2021/12/22 06:23:23;;;;;;;79.68;23.05;;;-5.60;99.90;;;;;;4949890;29;20432;-60
2021/12/22 06:25:49;;;;;;;88.82;25.48;;;-5.60;99.90;;;;;;4944750;29;20540;-60
2021/12/22 06:28:14;;;;;;;72.30;21.27;;;-5.60;99.90;;;;;;4949962;29;20971;-61
2021/12/22 06:30:40;;;;;;;78.57;24.90;;;-5.60;99.90;;;;;;4951805;29;20043;-60
2021/12/22 06:33:06;;;;;;;82.10;24.85;;;-5.50;99.90;;;;;;4948142;29;20384;-60
2021/12/22 06:35:32;;;;;;;75.53;22.63;;;-5.50;99.90;;;;;;4931480;29;20031;-60
2021/12/22 06:37:57;;;;;;;80.20;24.20;;;-5.40;99.90;;;;;;4949900;29;20089;-60
2021/12/22 06:40:23;;;;;;;61.13;18.63;;;-5.40;99.90;;;;;;4933088;29;20471;-60
2021/12/22 06:42:49;;;;;;;61.75;18.30;;;-5.30;99.90;;;;;;4948050;29;20037;-60
2021/12/22 06:45:15;;;;;;;66.32;18.50;;;-5.30;99.90;;;;;;4950872;29;20646;-61
2021/12/22 06:47:41;;;;;;;56.70;17.98;;;-5.30;99.90;;;;;;4952324;29;20051;-61
2021/12/22 06:50:09;;;;;;;62.58;18.17;;;-5.30;99.90;;;;;;4950950;29;20039;-60
2021/12/22 06:52:34;;;;;;;54.05;18.02;;;-5.40;99.90;;;;;;4950701;29;20484;-60
2021/12/22 06:55:00;;;;;;;56.20;17.35;;;-5.40;99.90;;;;;;4948578;28;20043;-60
2021/12/22 06:57:29;;;;;;;55.08;17.80;;;-5.80;99.90;;;;;;4952061;29;20031;-60
2021/12/22 06:59:56;;;;;;;57.22;17.77;;;-6.10;99.90;;;;;;4950392;29;20026;-60
2021/12/22 07:02:24;;;;;;;57.88;17.88;;;-6.10;99.90;;;;;;4949846;29;20041;-60
2021/12/22 07:04:49;;;;;;;58.53;18.42;;;-6.10;99.90;;;;;;4949569;28;20379;-60
2021/12/22 07:07:15;;;;;;;56.90;16.90;;;-6.00;99.90;;;;;;4949146;29;20039;-60
2021/12/22 07:09:41;;;;;;;46.72;16.20;;;-5.90;99.90;;;;;;4949964;29;20106;-60
2021/12/22 07:12:09;;;;;;;53.13;17.35;;;-6.00;99.90;;;;;;4948933;29;20480;-60
2021/12/22 07:14:35;;;;;;;53.40;16.98;;;-6.20;99.90;;;;;;4951408;29;20023;-60
2021/12/22 07:17:01;;;;;;;63.08;17.83;;;-6.20;99.90;;;;;;4950985;29;20055;-59
2021/12/22 07:19:27;;;;;;;61.70;19.83;;;-6.30;99.90;;;;;;4950719;29;20183;-60
2021/12/22 07:21:54;;;;;;;59.50;18.80;;;-6.30;99.90;;;;;;4942539;29;20097;-59
2021/12/22 07:24:21;;;;;;;63.97;20.88;;;-6.40;99.90;;;;;;4929300;29;20469;-61
2021/12/22 07:26:46;;;;;;;62.67;18.38;;;-6.50;99.90;;;;;;4926524;29;20210;-60
2021/12/22 07:29:12;;;;;;;50.05;17.25;;;-6.70;99.90;;;;;;4924946;29;20047;-60
2021/12/22 07:31:38;;;;;;;54.40;17.90;;;-6.70;99.90;;;;;;4928707;29;20040;-60
2021/12/22 07:34:20;;;;;;;53.00;17.77;;;-6.60;99.90;;;;;;4930899;29;20890;-60
2021/12/22 07:37:03;;;;;;;60.33;17.00;;;-6.60;99.90;;;;;;4915527;29;20027;-59
2021/12/22 07:39:28;;;;;;;55.20;17.65;;;-6.70;99.90;;;;;;4930412;29;20067;-60
2021/12/22 07:41:54;;;;;;;62.15;18.35;;;-6.70;99.90;;;;;;4930456;29;20067;-61
2021/12/22 07:44:20;;;;;;;64.72;18.75;;;-6.70;99.90;;;;;;4930272;29;20044;-60
2021/12/22 07:46:46;;;;;;;51.05;17.17;;;-6.60;99.90;;;;;;4929349;29;20031;-60
2021/12/22 07:49:11;;;;;;;50.45;16.95;;;-6.70;99.90;;;;;;4929322;29;20024;-60
2021/12/22 07:51:37;;;;;;;52.65;18.23;;;-6.60;99.90;;;;;;4930940;29;20027;-60
2021/12/22 07:54:04;;;;;;;53.28;17.77;;;-6.50;99.90;;;;;;4931515;29;20070;-60
2021/12/22 07:56:30;;;;;;;50.92;16.88;;;-6.40;99.90;;;;;;4930730;29;20039;-60
2021/12/22 07:58:55;;;;;;;47.97;16.42;;;-6.30;99.90;;;;;;4926045;29;20062;-61
2021/12/22 08:01:21;;;;;;;49.35;16.98;;;-6.20;99.90;;;;;;4931120;29;20481;-60
2021/12/22 08:03:47;;;;;;;52.17;18.25;;;-6.10;99.90;;;;;;4927770;29;20036;-60
2021/12/22 08:06:14;;;;;;;59.45;17.13;;;-6.10;99.90;;;;;;4915246;29;20036;-59
2021/12/22 08:08:40;;;;;;;79.50;24.92;;;-6.00;99.90;;;;;;4920052;29;20118;-60
2021/12/22 08:11:06;;;;;;;135.10;40.35;;;-6.00;99.90;;;;;;4907470;29;20062;-60
2021/12/22 08:13:32;;;;;;;72.03;23.52;;;-5.90;99.90;;;;;;4905890;29;20413;-60
2021/12/22 08:15:58;;;;;;;58.83;18.85;;;-5.90;99.90;;;;;;4896433;29;20033;-60
2021/12/22 08:18:24;;;;;;;59.95;17.67;;;-5.80;99.90;;;;;;4900947;29;20225;-62
2021/12/22 08:20:50;;;;;;;49.75;17.77;;;-5.70;99.90;;;;;;4903539;29;20068;-60
2021/12/22 08:23:18;;;;;;;46.17;16.83;;;-5.60;99.90;;;;;;4935011;29;20058;-60
2021/12/22 08:25:45;;;;;;;53.38;18.23;;;-5.50;99.90;;;;;;4927759;28;20778;-61
2021/12/22 08:28:10;;;;;;;57.70;18.30;;;-5.50;99.90;;;;;;4944979;28;20032;-60
2021/12/22 08:30:37;;;;;;;58.83;18.73;;;-5.30;99.90;;;;;;4925547;28;20058;-59
2021/12/22 08:33:09;;;;;;;56.60;17.98;;;-5.20;99.90;;;;;;4946383;28;20736;-61
2021/12/22 08:38:50;;;;;;;57.30;17.42;;;-5.10;99.90;;;;;;4931431;29;20040;-61
2021/12/22 08:41:06;;;;;;;61.50;19.13;;;-4.90;99.90;;;;;;4924645;28;20066;-61
2021/12/22 08:43:32;;;;;;;58.67;20.23;;;-4.80;99.90;;;;;;4934589;29;20036;-61
2021/12/22 08:45:58;;;;;;;68.50;22.73;;;-4.70;99.90;;;;;;4923656;28;20390;-61
2021/12/22 08:48:24;;;;;;;82.53;25.58;;;-4.40;99.90;;;;;;4932974;29;20043;-61
2021/12/22 08:50:49;;;;;;;71.05;22.83;;;-4.30;99.90;;;;;;4940379;29;21119;-62
2021/12/22 08:53:15;;;;;;;78.47;22.70;;;-4.20;99.90;;;;;;4940607;28;20032;-63
2021/12/22 08:55:41;;;;;;;75.78;22.73;;;-4.10;99.90;;;;;;4930839;29;20079;-61
2021/12/22 08:58:06;;;;;;;79.85;24.13;;;-4.00;99.90;;;;;;4942999;29;20392;-62
2021/12/22 09:00:33;;;;;;;76.25;23.80;;;-3.90;99.90;;;;;;4946788;28;20035;-61
2021/12/22 09:02:59;;;;;;;54.78;18.83;;;-3.60;99.90;;;;;;4945994;29;20110;-61
2021/12/22 09:05:25;;;;;;;64.55;19.20;;;-3.60;99.90;;;;;;4949700;29;20118;-61
2021/12/22 09:07:51;;;;;;;57.80;18.60;;;-3.50;99.90;;;;;;4950867;29;20028;-61
2021/12/22 09:10:17;;;;;;;61.17;17.58;;;-3.40;99.90;;;;;;4949216;29;20638;-61
2021/12/22 09:12:43;;;;;;;62.38;19.52;;;-3.30;99.90;;;;;;4949403;29;20033;-61
2021/12/22 09:15:09;;;;;;;90.38;24.70;;;-3.20;99.90;;;;;;4950123;28;20045;-60
2021/12/22 09:17:34;;;;;;;54.70;18.48;;;-3.00;99.90;;;;;;4950732;29;20074;-61
2021/12/22 09:20:00;;;;;;;102.95;29.25;;;-2.80;99.90;;;;;;4952811;28;20058;-60
2021/12/22 09:22:26;;;;;;;68.68;19.98;;;-2.80;99.90;;;;;;4937691;29;20098;-61
2021/12/22 09:24:52;;;;;;;58.33;18.83;;;-2.70;99.90;;;;;;4953987;29;20027;-61
2021/12/22 09:27:18;;;;;;;64.57;19.92;;;-2.60;99.90;;;;;;4949814;29;20023;-61
2021/12/22 09:29:44;;;;;;;55.80;18.73;;;-2.40;99.90;;;;;;4934070;29;20620;-61
2021/12/22 09:32:14;;;;;;;55.58;19.15;;;-2.30;99.90;;;;;;4934715;29;20046;-60
2021/12/22 09:34:42;;;;;;;53.70;19.75;;;-2.10;99.90;;;;;;4952995;29;20058;-61
2021/12/22 09:37:07;;;;;;;51.28;18.17;;;-1.90;99.90;;;;;;4952547;29;20059;-60
2021/12/22 09:39:33;;;;;;;58.08;18.55;;;-1.80;99.90;;;;;;4953510;29;20456;-65
2021/12/22 09:41:59;;;;;;;56.25;17.67;;;-1.80;99.90;;;;;;4944724;29;20047;-62
2021/12/22 09:44:31;;;;;;;50.97;17.50;;;-1.70;99.90;;;;;;4934068;29;20400;-64
2021/12/22 09:46:57;;;;;;;52.47;18.20;;;-1.60;99.90;;;;;;4935305;29;20031;-66
2021/12/22 09:54:41;;;;;;;48.58;15.65;;;-1.70;99.90;;;;;;4941084;29;20396;-63
2021/12/22 09:57:07;;;;;;;45.10;15.77;;;-1.60;99.90;;;;;;4951949;29;20024;-65
2021/12/22 09:59:33;;;;;;;54.95;18.08;;;-1.60;99.90;;;;;;4951969;28;20043;-64
2021/12/22 10:01:59;;;;;;;43.38;14.95;;;-1.50;99.90;;;;;;4951216;29;20039;-65
2021/12/22 10:04:25;;;;;;;52.67;17.17;;;-1.40;99.90;;;;;;4951248;29;20034;-65
2021/12/22 10:06:52;;;;;;;49.83;18.13;;;-1.30;99.90;;;;;;4953249;29;20035;-64
2021/12/22 10:09:22;;;;;;;43.42;14.93;;;-1.10;99.90;;;;;;4952494;29;20058;-65
2021/12/22 10:11:48;;;;;;;45.35;16.50;;;-0.90;99.90;;;;;;4953380;29;20039;-66
2021/12/22 10:14:26;;;;;;;47.92;16.42;;;-1.10;99.90;;;;;;4966858;28;20046;-68
2021/12/22 10:16:54;;;;;;;71.93;24.45;;;-1.00;99.90;;;;;;4952566;29;20031;-66
2021/12/22 10:19:23;;;;;;;39.60;13.63;;;-0.80;99.90;;;;;;4951691;29;20023;-65
2021/12/22 10:21:59;;;;;;;52.67;19.92;;;-0.50;99.90;;;;;;4942075;29;20059;-66
2021/12/22 10:24:42;;;;;;;37.92;14.43;;;-0.30;99.90;;;;;;4932996;29;20039;-64
2021/12/22 10:27:17;;;;;;;44.72;14.60;;;-0.10;99.90;;;;;;4948524;29;20476;-66
2021/12/22 10:29:43;;;;;;;37.97;14.90;;;0.10;99.90;;;;;;4952240;28;20035;-65
2021/12/22 10:32:12;;;;;;;39.05;14.68;;;0.20;99.90;;;;;;4951085;29;20080;-65
2021/12/22 10:35:05;;;;;;;29.00;10.98;;;0.30;99.90;;;;;;4951343;29;20513;-64
2021/12/22 10:37:39;;;;;;;33.15;12.30;;;0.30;99.90;;;;;;4949894;29;20027;-66
2021/12/22 10:40:26;;;;;;;39.55;14.32;;;0.40;99.90;;;;;;4950406;29;20035;-61
2021/12/22 10:42:53;;;;;;;39.08;13.57;;;0.60;99.90;;;;;;4952582;29;20039;-66
2021/12/22 10:45:20;;;;;;;29.77;10.98;;;0.70;99.90;;;;;;4940423;29;20027;-66
2021/12/22 10:50:59;;;;;;;32.45;12.05;;;0.40;99.90;;;;;;4941832;29;20031;-74
2021/12/22 10:53:26;;;;;;;31.70;11.55;;;0.60;99.90;;;;;;4937808;29;20038;-64
2021/12/22 10:55:54;;;;;;;30.40;10.60;;;0.70;99.90;;;;;;4951147;29;20468;-70
2021/12/22 10:58:33;;;;;;;35.45;11.77;;;0.70;99.90;;;;;;4946510;29;20035;-67
2021/12/22 11:01:19;;;;;;;30.85;12.02;;;0.80;99.90;;;;;;4943895;29;20031;-66
2021/12/22 11:03:50;;;;;;;31.60;11.98;;;0.90;99.90;;;;;;4951821;28;20047;-66
2021/12/22 11:06:28;;;;;;;34.60;12.52;;;1.00;99.90;;;;;;4951100;28;20027;-67
2021/12/22 11:09:01;;;;;;;30.33;12.45;;;1.20;99.90;;;;;;4950503;29;20652;-68
2021/12/22 11:11:37;;;;;;;30.40;12.15;;;1.20;99.90;;;;;;4941068;28;20031;-68
2021/12/22 11:14:10;;;;;;;29.80;10.70;;;1.20;99.90;;;;;;4951563;28;20093;-68
2021/12/22 11:17:00;;;;;;;33.63;11.75;;;1.20;99.90;;;;;;4950513;29;20062;-68
2021/12/22 11:19:29;;;;;;;32.05;11.68;;;1.10;99.90;;;;;;4948817;29;20031;-68
2021/12/22 11:22:17;;;;;;;28.48;11.27;;;1.10;99.90;;;;;;4951197;28;20059;-67
2021/12/22 11:24:48;;;;;;;28.20;11.25;;;1.20;99.90;;;;;;4952049;29;20456;-68
2021/12/22 11:27:19;;;;;;;30.50;11.80;;;1.20;99.90;;;;;;4950063;29;20031;-69
2021/12/22 11:29:57;;;;;;;29.30;11.38;;;1.30;99.90;;;;;;4951459;29;20039;-66
2021/12/22 11:32:26;;;;;;;33.70;13.40;;;1.40;99.90;;;;;;4943990;28;20036;-69
2021/12/22 11:34:55;;;;;;;30.00;12.10;;;1.70;99.90;;;;;;4940947;29;20059;-70
2021/12/22 11:37:24;;;;;;;31.33;12.15;;;1.90;99.90;;;;;;4940082;28;20381;-70
2021/12/22 11:39:50;;;;;;;26.55;10.88;;;1.90;99.90;;;;;;4941116;29;20050;-68
2021/12/22 11:42:19;;;;;;;30.42;11.65;;;1.90;99.90;;;;;;4949250;28;20032;-69
2021/12/22 11:44:48;;;;;;;33.60;11.50;;;1.90;99.90;;;;;;4951623;28;20031;-70
2021/12/22 11:47:16;;;;;;;31.08;11.98;;;2.10;99.90;;;;;;4949434;29;20039;-69
2021/12/22 11:49:53;;;;;;;32.47;12.27;;;2.10;99.90;;;;;;4951511;29;20031;-72
2021/12/22 11:52:42;;;;;;;32.25;12.15;;;2.20;99.90;;;;;;4949136;29;20041;-70
2021/12/22 11:55:09;;;;;;;33.67;12.27;;;2.20;99.90;;;;;;4951272;29;20039;-65
2021/12/22 11:57:35;;;;;;;30.08;11.93;;;2.20;99.90;;;;;;4947106;29;20382;-68
2021/12/22 12:00:27;;;;;;;32.55;11.80;;;2.20;99.90;;;;;;4950509;29;20086;-71
2021/12/22 12:02:55;;;;;;;30.00;11.30;;;2.30;99.90;;;;;;4950874;29;20023;-69
2021/12/22 12:05:27;;;;;;;31.30;12.65;;;2.40;99.90;;;;;;4950803;28;20031;-70
2021/12/22 12:07:57;;;;;;;27.55;11.43;;;2.50;99.90;;;;;;4951122;28;20035;-68
2021/12/22 12:10:42;;;;;;;27.67;11.07;;;2.60;99.90;;;;;;4948273;28;20403;-68
2021/12/22 12:13:38;;;;;;;26.02;10.57;;;2.50;99.90;;;;;;4949796;29;20435;-66
2021/12/22 12:22:30;;;;;;;28.98;12.85;;;2.60;99.90;;;;;;4946157;29;20118;-70
2021/12/22 12:25:13;;;;;;;30.65;12.57;;;2.90;99.90;;;;;;4956818;28;20023;-71
2021/12/22 12:27:45;;;;;;;29.42;11.93;;;2.90;99.90;;;;;;4950612;28;20495;-70
2021/12/22 12:30:37;;;;;;;29.77;12.13;;;3.00;99.90;;;;;;4945955;28;20106;-64
2021/12/22 12:33:05;;;;;;;29.00;11.68;;;2.90;99.90;;;;;;4950763;29;20042;-68
2021/12/22 12:35:34;;;;;;;28.77;12.30;;;3.00;99.90;;;;;;4950151;28;20070;-72
2021/12/22 12:38:19;;;;;;;29.55;12.75;;;3.20;99.90;;;;;;4951178;28;20050;-70
2021/12/22 12:40:57;;;;;;;29.83;13.07;;;3.30;99.90;;;;;;4949591;28;20070;-68
2021/12/22 12:43:48;;;;;;;31.52;13.15;;;3.20;99.90;;;;;;4948808;29;20042;-71
2021/12/22 12:46:41;;;;;;;;;;;3.20;99.90;;;;;;4931205;29;20055;-68
2021/12/22 12:49:09;;;;;;;29.10;12.00;;;3.30;99.90;;;;;;4934941;29;19974;-71
2021/12/22 12:51:49;;;;;;;34.85;12.45;;;3.50;99.90;;;;;;4949844;28;20039;-70
2021/12/22 12:54:17;;;;;;;29.50;12.38;;;3.60;99.90;;;;;;4952249;28;20361;-66
2021/12/22 12:56:49;;;;;;;33.55;13.13;;;3.60;99.90;;;;;;4953263;29;20038;-69
2021/12/22 12:59:26;;;;;;;33.58;13.18;;;3.40;99.90;;;;;;4952245;29;20035;-66
2021/12/22 13:01:52;;;;;;;34.17;14.00;;;3.30;99.90;;;;;;4935475;29;20098;-70